sensor_id;sensor_type;location;lat;lon;timestamp;pressure;altitude;pressure_sealevel;temperature;humidity
10167;BME280;62970;53.130;8.244;2023-02-16T10:46:35;102206.91;;;7.26;74.22
10167;BME280;62970;53.130;8.244;2023-02-16T10:51:55;102206.13;;;7.31;73.58
10167;BME280;62970;53.130;8.244;2023-02-16T10:54:27;102213.97;;;7.36;73.45
10167;BME280;62970;53.130;8.244;2023-02-16T10:57:01;102213.19;;;7.40;72.82
10167;BME280;62970;53.130;8.244;2023-02-16T10:59:37;102214.94;;;7.43;73.03
10167;BME280;62970;53.130;8.244;2023-02-16T11:02:19;102214.97;;;7.46;72.65
10167;BME280;62970;53.130;8.244;2023-02-16T11:04:56;102209.81;;;7.47;72.45
10167;BME280;62970;53.130;8.244;2023-02-16T11:07:29;102211.56;;;7.50;72.39
10167;BME280;62970;53.130;8.244;2023-02-16T11:10:00;102213.31;;;7.51;72.37
10167;BME280;62970;53.130;8.244;2023-02-16T11:12:55;102209.00;;;7.51;72.31
10167;BME280;62970;53.130;8.244;2023-02-16T11:15:25;102210.75;;;7.54;72.51
10167;BME280;62970;53.130;8.244;2023-02-16T11:18:02;102210.75;;;7.55;71.88
10167;BME280;62970;53.130;8.244;2023-02-16T11:20:49;102207.34;;;7.58;72.12
10167;BME280;62970;53.130;8.244;2023-02-16T11:23:25;102210.81;;;7.60;72.02
10167;BME280;62970;53.130;8.244;2023-02-16T11:26:00;102210.84;;;7.61;71.75
10167;BME280;62970;53.130;8.244;2023-02-16T11:28:34;102207.41;;;7.64;71.80
10167;BME280;62970;53.130;8.244;2023-02-16T11:31:16;102204.81;;;7.64;71.49
10167;BME280;62970;53.130;8.244;2023-02-16T11:34:01;102207.41;;;7.64;71.75
10167;BME280;62970;53.130;8.244;2023-02-16T11:36:34;102210.00;;;7.66;71.80
10167;BME280;62970;53.130;8.244;2023-02-16T11:39:13;102205.69;;;7.65;71.58
10167;BME280;62970;53.130;8.244;2023-02-16T11:41:52;102192.75;;;7.69;71.77
10167;BME280;62970;53.130;8.244;2023-02-16T11:44:27;102190.19;;;7.74;71.63
10167;BME280;62970;53.130;8.244;2023-02-16T11:46:58;102196.31;;;7.80;71.14
10167;BME280;62970;53.130;8.244;2023-02-16T11:49:35;102186.84;;;7.84;71.11
10167;BME280;62970;53.130;8.244;2023-02-16T11:52:25;102190.31;;;7.86;70.92
10167;BME280;62970;53.130;8.244;2023-02-16T11:54:57;102192.94;;;7.89;71.46
10167;BME280;62970;53.130;8.244;2023-02-16T11:57:29;102199.03;;;7.92;70.70
10167;BME280;62970;53.130;8.244;2023-02-16T12:00:06;102195.59;;;7.93;71.11
10167;BME280;62970;53.130;8.244;2023-02-16T12:03:13;102187.78;;;7.90;71.14
10167;BME280;62970;53.130;8.244;2023-02-16T12:06:18;102189.50;;;7.90;70.85
10167;BME280;62970;53.130;8.244;2023-02-16T12:09:07;102176.53;;;7.91;71.13
10167;BME280;62970;53.130;8.244;2023-02-16T12:11:55;102185.22;;;7.97;71.27
10167;BME280;62970;53.130;8.244;2023-02-16T12:14:45;102185.25;;;7.98;70.96
10167;BME280;62970;53.130;8.244;2023-02-16T12:17:47;102182.66;;;8.00;71.14
10167;BME280;62970;53.130;8.244;2023-02-16T12:20:53;102187.88;;;8.03;71.20
10167;BME280;62970;53.130;8.244;2023-02-16T12:23:36;102165.38;;;8.05;71.58
10167;BME280;62970;53.130;8.244;2023-02-16T12:26:33;102162.84;;;8.11;71.44
10167;BME280;62970;53.130;8.244;2023-02-16T12:29:18;102162.03;;;8.18;71.27
10167;BME280;62970;53.130;8.244;2023-02-16T12:32:04;102156.91;;;8.25;71.62
10167;BME280;62970;53.130;8.244;2023-02-16T12:34:48;102166.47;;;8.31;71.55
10167;BME280;62970;53.130;8.244;2023-02-16T12:37:28;102158.66;;;8.30;70.98
10167;BME280;62970;53.130;8.244;2023-02-16T12:40:15;102143.06;;;8.30;71.45
10167;BME280;62970;53.130;8.244;2023-02-16T12:43:01;102137.88;;;8.31;70.87
10167;BME280;62970;53.130;8.244;2023-02-16T12:45:43;102135.28;;;8.33;71.46
10167;BME280;62970;53.130;8.244;2023-02-16T12:48:42;102123.19;;;8.33;71.03
10167;BME280;62970;53.130;8.244;2023-02-16T12:51:18;102122.34;;;8.37;70.87
10167;BME280;62970;53.130;8.244;2023-02-16T12:53:57;102119.75;;;8.42;71.00
10167;BME280;62970;53.130;8.244;2023-02-16T12:56:35;102106.81;;;8.46;71.36
10167;BME280;62970;53.130;8.244;2023-02-16T12:59:17;102101.63;;;8.51;71.68
10167;BME280;62970;53.130;8.244;2023-02-16T13:01:55;102099.06;;;8.57;71.29
10167;BME280;62970;53.130;8.244;2023-02-16T13:04:37;102098.22;;;8.61;71.49
10167;BME280;62970;53.130;8.244;2023-02-16T13:07:17;102096.50;;;8.62;71.20
10167;BME280;62970;53.130;8.244;2023-02-16T13:10:00;102099.06;;;8.60;70.93
10167;BME280;62970;53.130;8.244;2023-02-16T13:12:39;102101.63;;;8.52;70.80
10167;BME280;62970;53.130;8.244;2023-02-16T13:15:14;102099.00;;;8.46;70.54
10167;BME280;62970;53.130;8.244;2023-02-16T13:17:52;102087.69;;;8.40;71.05
10167;BME280;62970;53.130;8.244;2023-02-16T13:20:24;102094.59;;;8.36;70.99
10167;BME280;62970;53.130;8.244;2023-02-16T13:23:36;102090.22;;;8.26;71.19
10167;BME280;62970;53.130;8.244;2023-02-16T13:26:42;102078.91;;;8.18;70.85
10167;BME280;62970;53.130;8.244;2023-02-16T13:32:59;102094.38;;;8.03;71.14
10167;BME280;62970;53.130;8.244;2023-02-16T13:35:49;102094.31;;;7.97;71.12
10167;BME280;62970;53.130;8.244;2023-02-16T13:39:17;102097.72;;;7.89;71.30
10167;BME280;62970;53.130;8.244;2023-02-16T13:45:14;102097.66;;;7.80;71.24
10167;BME280;62970;53.130;8.244;2023-02-16T13:47:46;102095.03;;;7.79;71.63
10167;BME280;62970;53.130;8.244;2023-02-16T13:50:53;102097.59;;;7.74;71.46
10167;BME280;62970;53.130;8.244;2023-02-16T13:53:24;102089.81;;;7.74;71.26
10167;BME280;62970;53.130;8.244;2023-02-16T13:56:19;102088.94;;;7.74;71.40
10167;BME280;62970;53.130;8.244;2023-02-16T13:58:53;102083.75;;;7.77;71.52
10167;BME280;62970;53.130;8.244;2023-02-16T14:01:40;102079.44;;;7.76;71.74
10167;BME280;62970;53.130;8.244;2023-02-16T14:04:58;102081.16;;;7.77;71.53
10167;BME280;62970;53.130;8.244;2023-02-16T14:07:20;102080.31;;;7.79;72.10
10167;BME280;62970;53.130;8.244;2023-02-16T14:09:50;102085.56;;;7.84;71.87
10167;BME280;62970;53.130;8.244;2023-02-16T14:12:27;102079.53;;;7.86;71.51
10167;BME280;62970;53.130;8.244;2023-02-16T14:17:55;102070.91;;;7.93;71.79
10167;BME280;62970;53.130;8.244;2023-02-16T14:20:30;102069.22;;;7.97;71.95
10167;BME280;62970;53.130;8.244;2023-02-16T14:23:01;102073.56;;;8.01;71.45
10167;BME280;62970;53.130;8.244;2023-02-16T14:25:38;102068.38;;;8.00;71.42
10167;BME280;62970;53.130;8.244;2023-02-16T14:28:50;102072.69;;;7.99;71.67
10167;BME280;62970;53.130;8.244;2023-02-16T14:31:25;102063.19;;;8.00;71.48
10167;BME280;62970;53.130;8.244;2023-02-16T14:34:04;102069.25;;;8.02;71.68
10167;BME280;62970;53.130;8.244;2023-02-16T14:37:30;102068.38;;;8.01;71.42
10167;BME280;62970;53.130;8.244;2023-02-16T14:40:46;102064.03;;;7.99;71.43
10167;BME280;62970;53.130;8.244;2023-02-16T14:43:27;102073.59;;;8.03;71.72
10167;BME280;62970;53.130;8.244;2023-02-16T14:46:23;102065.78;;;8.03;70.98
10167;BME280;62970;53.130;8.244;2023-02-16T14:49:37;102046.75;;;8.04;71.44
10167;BME280;62970;53.130;8.244;2023-02-16T14:52:45;102059.75;;;8.04;71.75
10167;BME280;62970;53.130;8.244;2023-02-16T14:55:45;102057.16;;;8.05;71.51
10167;BME280;62970;53.130;8.244;2023-02-16T14:58:33;102051.97;;;8.05;71.48
10167;BME280;62970;53.130;8.244;2023-02-16T15:01:14;102051.97;;;8.08;71.61
10167;BME280;62970;53.130;8.244;2023-02-16T15:03:48;102053.72;;;8.09;71.39
10167;BME280;62970;53.130;8.244;2023-02-16T15:06:30;102045.06;;;8.09;71.17
10167;BME280;62970;53.130;8.244;2023-02-16T15:09:12;102054.59;;;8.10;71.28
10167;BME280;62970;53.130;8.244;2023-02-16T15:11:55;102054.56;;;8.08;71.45
10167;BME280;62970;53.130;8.244;2023-02-16T15:14:44;102058.91;;;8.06;71.47
10167;BME280;62970;53.130;8.244;2023-02-16T15:17:29;102036.38;;;8.05;71.26
10167;BME280;62970;53.130;8.244;2023-02-16T15:20:18;102036.34;;;8.04;71.31
10167;BME280;62970;53.130;8.244;2023-02-16T15:22:55;102040.69;;;8.02;71.19
10167;BME280;62970;53.130;8.244;2023-02-16T15:25:30;102049.31;;;8.01;71.09
10167;BME280;62970;53.130;8.244;2023-02-16T15:28:02;102050.16;;;7.97;71.46
10167;BME280;62970;53.130;8.244;2023-02-16T15:30:35;102047.56;;;7.95;71.46
10167;BME280;62970;53.130;8.244;2023-02-16T15:33:10;102026.75;;;7.92;70.93
10167;BME280;62970;53.130;8.244;2023-02-16T15:35:43;102029.34;;;7.90;71.05
10167;BME280;62970;53.130;8.244;2023-02-16T15:38:25;102032.78;;;7.88;71.42
10167;BME280;62970;53.130;8.244;2023-02-16T15:41:01;102031.91;;;7.87;71.51
10167;BME280;62970;53.130;8.244;2023-02-16T15:43:43;102034.50;;;7.84;71.31
10167;BME280;62970;53.130;8.244;2023-02-16T15:46:31;102035.34;;;7.83;71.34
10167;BME280;62970;53.130;8.244;2023-02-16T15:49:10;102042.25;;;7.81;71.33
10167;BME280;62970;53.130;8.244;2023-02-16T15:51:43;102043.09;;;7.79;71.29
10167;BME280;62970;53.130;8.244;2023-02-16T15:54:21;102044.81;;;7.77;71.41
10167;BME280;62970;53.130;8.244;2023-02-16T15:56:53;102043.94;;;7.76;71.12
10167;BME280;62970;53.130;8.244;2023-02-16T16:02:10;102032.66;;;7.71;71.54
10167;BME280;62970;53.130;8.244;2023-02-16T16:04:43;102041.31;;;7.72;71.17
10167;BME280;62970;53.130;8.244;2023-02-16T16:07:21;102034.38;;;7.69;71.42
10167;BME280;62970;53.130;8.244;2023-02-16T16:09:57;102027.44;;;7.67;71.36
10167;BME280;62970;53.130;8.244;2023-02-16T16:12:30;102023.94;;;7.63;71.77
10167;BME280;62970;53.130;8.244;2023-02-16T16:15:16;102023.91;;;7.60;71.52
10167;BME280;62970;53.130;8.244;2023-02-16T16:17:50;102025.63;;;7.58;71.53
10167;BME280;62970;53.130;8.244;2023-02-16T16:20:34;102014.34;;;7.56;71.28
10167;BME280;62970;53.130;8.244;2023-02-16T16:23:24;102020.38;;;7.52;71.39
10167;BME280;62970;53.130;8.244;2023-02-16T16:25:57;102004.78;;;7.49;71.69
10167;BME280;62970;53.130;8.244;2023-02-16T16:28:34;102005.63;;;7.46;71.58
10167;BME280;62970;53.130;8.244;2023-02-16T16:31:09;102007.31;;;7.41;71.90
10167;BME280;62970;53.130;8.244;2023-02-16T16:33:53;102005.53;;;7.39;71.56
10167;BME280;62970;53.130;8.244;2023-02-16T16:36:29;102014.16;;;7.36;72.07
10167;BME280;62970;53.130;8.244;2023-02-16T16:39:22;102000.28;;;7.32;71.85
10167;BME280;62970;53.130;8.244;2023-02-16T16:42:23;101992.47;;;7.31;72.23
10167;BME280;62970;53.130;8.244;2023-02-16T16:44:57;101991.63;;;7.30;71.80
10167;BME280;62970;53.130;8.244;2023-02-16T16:47:33;101991.59;;;7.29;71.86
10167;BME280;62970;53.130;8.244;2023-02-16T16:50:27;101986.41;;;7.27;71.83
10167;BME280;62970;53.130;8.244;2023-02-16T16:52:57;101982.06;;;7.28;71.97
10167;BME280;62970;53.130;8.244;2023-02-16T16:55:31;101981.19;;;7.26;71.93
10167;BME280;62970;53.130;8.244;2023-02-16T16:58:05;101976.84;;;7.25;72.12
10167;BME280;62970;53.130;8.244;2023-02-16T17:00:38;101974.25;;;7.25;72.49
10167;BME280;62970;53.130;8.244;2023-02-16T17:03:11;101970.81;;;7.24;71.99
10167;BME280;62970;53.130;8.244;2023-02-16T17:05:41;101976.00;;;7.24;72.55
10167;BME280;62970;53.130;8.244;2023-02-16T17:08:11;101980.31;;;7.24;72.06
10167;BME280;62970;53.130;8.244;2023-02-16T17:10:43;101972.50;;;7.22;72.05
10167;BME280;62970;53.130;8.244;2023-02-16T17:13:20;101977.69;;;7.22;71.91
10167;BME280;62970;53.130;8.244;2023-02-16T17:15:54;101982.03;;;7.22;72.52
10167;BME280;62970;53.130;8.244;2023-02-16T17:18:25;101981.16;;;7.23;72.22
10167;BME280;62970;53.130;8.244;2023-02-16T17:20:56;101971.63;;;7.20;72.54
10167;BME280;62970;53.130;8.244;2023-02-16T17:23:27;101982.03;;;7.22;72.44
10167;BME280;62970;53.130;8.244;2023-02-16T17:25:58;101980.28;;;7.21;72.77
10167;BME280;62970;53.130;8.244;2023-02-16T17:28:32;101989.78;;;7.20;72.51
10167;BME280;62970;53.130;8.244;2023-02-16T17:31:03;101983.72;;;7.20;72.53
10167;BME280;62970;53.130;8.244;2023-02-16T17:33:34;101981.97;;;7.19;72.63
10167;BME280;62970;53.130;8.244;2023-02-16T17:36:10;101978.53;;;7.20;72.86
10167;BME280;62970;53.130;8.244;2023-02-16T17:38:40;101975.94;;;7.20;72.70
10167;BME280;62970;53.130;8.244;2023-02-16T17:44:08;101976.78;;;7.19;72.98
10167;BME280;62970;53.130;8.244;2023-02-16T17:46:38;101974.19;;;7.19;72.84
10167;BME280;62970;53.130;8.244;2023-02-16T17:49:12;101977.59;;;7.16;72.55
10167;BME280;62970;53.130;8.244;2023-02-16T17:51:41;101975.88;;;7.17;72.51
10167;BME280;62970;53.130;8.244;2023-02-16T17:54:10;101971.56;;;7.16;72.76
10167;BME280;62970;53.130;8.244;2023-02-16T17:56:41;101968.94;;;7.14;72.86
10167;BME280;62970;53.130;8.244;2023-02-16T17:59:16;101963.75;;;7.13;72.62
10167;BME280;62970;53.130;8.244;2023-02-16T18:01:46;101958.56;;;7.13;72.98
10167;BME280;62970;53.130;8.244;2023-02-16T18:04:18;101956.81;;;7.10;72.96
10167;BME280;62970;53.130;8.244;2023-02-16T18:06:47;101960.25;;;7.11;72.91
10167;BME280;62970;53.130;8.244;2023-02-16T18:09:18;101944.69;;;7.09;73.01
10167;BME280;62970;53.130;8.244;2023-02-16T18:11:49;101942.09;;;7.08;72.93
10167;BME280;62970;53.130;8.244;2023-02-16T18:14:22;101945.53;;;7.07;73.53
10167;BME280;62970;53.130;8.244;2023-02-16T18:16:52;101942.91;;;7.05;73.31
